Terminal Aerodrome Forecast
Issued by NWS

Home | Current Version | Previous Version | Graphics & Text | Print | Product List | Glossary On
Versions: 1 2 3 4 5 6 7 8 9 10 11 12 13 14 15 16 17 18
000
FTUS43 KPAH 231620 AAB
TAFCGI
TAF AMD
KCGI 231620Z 2316/2412 05011KT 4SM -RA BR BKN006
      TEMPO 2316/2318 1/2SM -RA FG SCT006 OVC011
     FM231800 07013G21KT P6SM VCSH OVC015
     FM232000 05012KT 5SM -SHRA OVC015
     FM240200 36007KT 4SM BR VCSH OVC010=

USA.gov is the U.S. government's official web portal to all federal, state and local government web resources and services.